createdAt,value
2023-06-01T00:00:15.344Z,2.97
2023-06-01T00:02:42.734Z,2.72
2023-06-01T00:05:09.487Z,3.53
2023-06-01T00:07:36.056Z,3.10
2023-06-01T00:10:02.596Z,2.58
2023-06-01T00:12:29.162Z,3.10
2023-06-01T00:14:56.189Z,2.70
2023-06-01T00:17:24.503Z,3.55
2023-06-01T00:19:51.068Z,2.80
2023-06-01T00:22:18.034Z,3.10
2023-06-01T00:24:44.783Z,3.45
2023-06-01T00:27:11.329Z,2.17
2023-06-01T00:29:37.833Z,3.25
2023-06-01T00:32:04.559Z,2.95
2023-06-01T00:34:33.169Z,3.25
2023-06-01T00:36:59.691Z,3.13
2023-06-01T00:39:26.217Z,3.10
2023-06-01T00:41:52.762Z,3.65
2023-06-01T00:44:19.261Z,3.78
2023-06-01T00:46:45.887Z,3.13
2023-06-01T00:49:12.530Z,3.85
2023-06-01T00:51:39.269Z,3.65
2023-06-01T00:54:05.815Z,3.35
2023-06-01T00:56:35.314Z,3.13
2023-06-01T00:59:05.295Z,3.70
2023-06-01T01:01:36.328Z,3.33
2023-06-01T01:04:05.329Z,3.10
2023-06-01T01:06:50.258Z,2.75
2023-06-01T01:09:41.653Z,2.90
2023-06-01T01:12:24.294Z,3.38
2023-06-01T01:15:06.815Z,3.67
2023-06-01T01:17:45.258Z,3.25
2023-06-01T01:20:18.964Z,3.10
2023-06-01T01:23:06.630Z,3.20
2023-06-01T01:25:48.185Z,3.30
2023-06-01T01:28:32.995Z,3.05
2023-06-01T01:31:01.032Z,3.80
2023-06-01T01:33:28.146Z,3.33
2023-06-01T01:35:54.794Z,2.75
2023-06-01T01:38:21.278Z,3.22
2023-06-01T01:40:47.771Z,3.50
2023-06-01T01:43:14.376Z,3.42
2023-06-01T01:45:41.491Z,3.13
2023-06-01T01:48:23.277Z,3.67
2023-06-01T01:50:57.049Z,3.17
2023-06-01T01:53:27.143Z,3.20
2023-06-01T01:55:56.743Z,3.83
2023-06-01T01:58:25.125Z,3.42
2023-06-01T02:00:53.439Z,3.08
2023-06-01T02:03:20.219Z,3.33
2023-06-01T02:05:46.782Z,3.13
2023-06-01T02:08:13.439Z,2.80
2023-06-01T02:10:41.856Z,2.80
2023-06-01T02:13:11.679Z,3.28
2023-06-01T02:15:41.466Z,3.15
2023-06-01T02:18:12.331Z,3.20
2023-06-01T02:20:41.910Z,3.47
2023-06-01T02:23:11.307Z,3.03
2023-06-01T02:25:40.281Z,3.30
2023-06-01T02:28:11.965Z,3.50
2023-06-01T02:30:39.410Z,3.15
2023-06-01T02:33:06.165Z,3.47
2023-06-01T02:35:32.717Z,3.03
2023-06-01T02:37:59.304Z,3.15
2023-06-01T02:40:25.867Z,3.60
2023-06-01T02:42:52.359Z,3.22
2023-06-01T02:45:18.966Z,3.60
2023-06-01T02:47:46.005Z,2.97
2023-06-01T02:50:12.544Z,3.10
2023-06-01T02:52:42.745Z,3.15
2023-06-01T02:55:11.814Z,3.63
2023-06-01T02:57:38.312Z,2.60
2023-06-01T03:00:06.070Z,3.45
2023-06-01T03:02:32.626Z,3.33
2023-06-01T03:04:59.191Z,3.47
2023-06-01T03:07:26.309Z,2.60
2023-06-01T03:09:52.831Z,3.28
2023-06-01T03:12:19.327Z,3.80
2023-06-01T03:14:45.894Z,3.05
2023-06-01T03:17:15.358Z,2.55
2023-06-01T03:19:44.932Z,3.40
2023-06-01T03:22:14.637Z,3.28
2023-06-01T03:24:51.765Z,3.13
2023-06-01T03:27:18.312Z,3.38
2023-06-01T03:29:44.796Z,2.92
2023-06-01T03:32:14.775Z,2.65
2023-06-01T03:34:44.485Z,3.42
2023-06-01T03:37:13.585Z,2.70
2023-06-01T03:39:40.936Z,2.80
2023-06-01T03:42:08.400Z,2.88
2023-06-01T03:44:35.007Z,3.10
2023-06-01T03:47:02.058Z,2.92
2023-06-01T03:49:28.638Z,2.90
2023-06-01T03:51:55.458Z,2.72
2023-06-01T03:54:22.130Z,2.65
2023-06-01T03:56:48.894Z,2.55
2023-06-01T03:59:16.152Z,2.90
2023-06-01T04:01:46.259Z,2.53
2023-06-01T04:04:15.593Z,3.35
2023-06-01T04:06:46.121Z,2.53
2023-06-01T04:09:15.987Z,3.40
2023-06-01T04:11:47.004Z,3.22
2023-06-01T04:14:15.879Z,2.67
2023-06-01T04:16:42.424Z,2.92
2023-06-01T04:19:08.926Z,2.60
2023-06-01T04:21:37.888Z,3.13
2023-06-01T04:24:04.675Z,2.80
2023-06-01T04:26:32.977Z,3.40
2023-06-01T04:29:00.052Z,3.05
2023-06-01T04:31:26.587Z,3.10
2023-06-01T04:33:57.589Z,3.47
2023-06-01T04:36:24.411Z,3.08
2023-06-01T04:38:55.234Z,2.60
2023-06-01T04:41:22.941Z,3.45
2023-06-01T04:43:53.865Z,3.72
2023-06-01T04:46:26.230Z,3.42
2023-06-01T04:49:00.798Z,3.42
2023-06-01T04:51:28.229Z,3.75
2023-06-01T04:53:55.138Z,3.33
2023-06-01T04:56:27.939Z,3.28
2023-06-01T04:58:56.103Z,3.53
2023-06-01T05:01:26.072Z,3.28
2023-06-01T05:03:56.116Z,2.85
2023-06-01T05:06:23.447Z,3.28
2023-06-01T05:08:50.023Z,2.80
2023-06-01T05:11:18.703Z,2.95
2023-06-01T05:13:45.550Z,3.78
2023-06-01T05:16:12.170Z,3.85
2023-06-01T05:18:39.251Z,3.95
2023-06-01T05:21:05.999Z,3.10
2023-06-01T05:23:33.476Z,3.60
2023-06-01T05:26:03.592Z,3.60
2023-06-01T05:28:35.663Z,3.53
2023-06-01T05:31:03.261Z,3.72
2023-06-01T05:33:30.705Z,4.05
2023-06-01T05:35:57.707Z,4.15
2023-06-01T05:38:24.570Z,3.55
2023-06-01T05:40:51.664Z,3.78
2023-06-01T05:43:20.348Z,3.67
2023-06-01T05:45:46.875Z,3.25
2023-06-01T05:48:15.611Z,3.40
2023-06-01T05:50:42.939Z,3.38
2023-06-01T05:53:10.734Z,3.28
2023-06-01T05:55:37.490Z,3.78
2023-06-01T05:58:04.190Z,3.08
2023-06-01T06:00:31.308Z,4.10
2023-06-01T06:02:57.947Z,3.78
2023-06-01T06:05:24.449Z,3.63
2023-06-01T06:07:51.909Z,4.38
2023-06-01T06:10:18.739Z,4.18
2023-06-01T06:12:45.470Z,3.47
2023-06-01T06:15:12.114Z,3.83
2023-06-01T06:17:38.741Z,3.92
2023-06-01T06:20:09.932Z,3.25
2023-06-01T06:22:37.393Z,4.00
2023-06-01T06:25:05.097Z,2.85
2023-06-01T06:27:31.705Z,3.63
2023-06-01T06:29:58.265Z,3.72
2023-06-01T06:32:24.945Z,3.78
2023-06-01T06:34:54.455Z,3.13
2023-06-01T06:37:24.415Z,3.28
2023-06-01T06:39:54.076Z,3.28
2023-06-01T06:42:25.892Z,3.25
2023-06-01T06:44:58.607Z,3.33
2023-06-01T06:47:26.024Z,3.25
2023-06-01T06:49:53.162Z,2.97
2023-06-01T06:52:23.830Z,3.13
2023-06-01T06:54:53.026Z,3.35
2023-06-01T06:57:22.821Z,3.15
2023-06-01T06:59:52.799Z,4.28
2023-06-01T07:02:22.913Z,4.35
2023-06-01T07:04:52.498Z,4.78
2023-06-01T07:07:22.148Z,4.07
2023-06-01T07:09:48.668Z,6.20
2023-06-01T07:12:15.952Z,7.13
2023-06-01T07:14:42.488Z,5.72
2023-06-01T07:17:10.363Z,6.13
2023-06-01T07:19:37.155Z,6.47
2023-06-01T07:22:04.147Z,6.28
2023-06-01T07:24:30.829Z,5.63
2023-06-01T07:26:58.566Z,5.93
2023-06-01T07:29:25.934Z,5.63
2023-06-01T07:31:55.492Z,5.50
2023-06-01T07:34:26.066Z,5.78
2023-06-01T07:37:08.943Z,5.88
2023-06-01T07:39:42.629Z,6.00
2023-06-01T07:42:09.529Z,6.28
2023-06-01T07:44:36.123Z,6.10
2023-06-01T07:47:02.718Z,6.45
2023-06-01T07:49:30.079Z,5.93
2023-06-01T07:51:57.782Z,6.05
2023-06-01T07:54:24.335Z,6.20
2023-06-01T07:56:54.852Z,6.18
2023-06-01T07:59:29.072Z,6.47
2023-06-01T08:01:57.177Z,6.38
2023-06-01T08:04:24.167Z,5.97
2023-06-01T08:06:54.596Z,6.35
2023-06-01T08:09:27.494Z,6.05
2023-06-01T08:11:54.876Z,6.00
2023-06-01T08:14:25.023Z,6.35
2023-06-01T08:16:54.997Z,5.90
2023-06-01T08:19:24.221Z,6.20
2023-06-01T08:21:54.361Z,6.28
2023-06-01T08:24:23.822Z,6.20
2023-06-01T08:26:52.573Z,6.57
2023-06-01T08:29:27.439Z,7.07
2023-06-01T08:32:01.428Z,5.97
2023-06-01T08:34:28.048Z,6.72
2023-06-01T08:36:55.468Z,6.30
2023-06-01T08:39:25.502Z,6.13
2023-06-01T08:42:05.110Z,6.18
2023-06-01T08:44:37.258Z,6.00
2023-06-01T08:47:07.148Z,6.38
2023-06-01T08:49:35.881Z,5.72
2023-06-01T08:52:08.273Z,6.57
2023-06-01T08:54:35.325Z,6.10
2023-06-01T08:57:04.995Z,6.43
2023-06-01T08:59:40.860Z,5.93
2023-06-01T09:02:07.631Z,6.28
2023-06-01T09:04:39.543Z,6.07
2023-06-01T09:07:06.814Z,5.60
2023-06-01T09:09:33.821Z,6.28
2023-06-01T09:12:18.900Z,6.40
2023-06-01T09:14:45.572Z,5.72
2023-06-01T09:17:16.683Z,5.95
2023-06-01T09:19:45.639Z,6.15
2023-06-01T09:22:13.716Z,6.15
2023-06-01T09:24:44.281Z,6.07
2023-06-01T09:27:11.454Z,6.10
2023-06-01T09:29:38.024Z,6.57
2023-06-01T09:32:05.177Z,6.70
2023-06-01T09:34:33.107Z,6.45
2023-06-01T09:37:07.678Z,6.60
2023-06-01T09:39:35.670Z,7.07
2023-06-01T09:42:07.973Z,7.28
2023-06-01T09:44:40.248Z,6.18
2023-06-01T09:47:12.998Z,6.15
2023-06-01T09:49:42.148Z,6.40
2023-06-01T09:52:11.040Z,6.45
2023-06-01T09:54:41.163Z,6.32
2023-06-01T09:57:12.156Z,6.60
2023-06-01T09:59:43.978Z,6.10
2023-06-01T10:02:19.823Z,5.93
2023-06-01T10:04:52.989Z,6.15
2023-06-01T10:07:27.311Z,5.65
2023-06-01T10:10:01.711Z,6.13
2023-06-01T10:12:29.582Z,5.80
2023-06-01T10:14:59.872Z,5.72
2023-06-01T10:17:27.576Z,6.05
2023-06-01T10:19:54.910Z,6.10
2023-06-01T10:22:25.108Z,6.13
2023-06-01T10:25:01.334Z,5.40
2023-06-01T10:27:40.516Z,6.03
2023-06-01T10:30:10.215Z,6.30
2023-06-01T10:32:49.263Z,6.10
2023-06-01T10:35:32.149Z,5.95
2023-06-01T10:38:07.853Z,6.28
2023-06-01T10:40:35.472Z,5.95
2023-06-01T10:43:02.422Z,6.32
2023-06-01T10:45:35.049Z,5.60
2023-06-01T10:48:03.708Z,6.18
2023-06-01T10:50:32.563Z,5.95
2023-06-01T10:53:33.526Z,5.30
2023-06-01T10:56:25.170Z,5.60
2023-06-01T10:59:13.633Z,5.72
2023-06-01T11:01:48.648Z,5.20
2023-06-01T11:04:16.448Z,5.50
2023-06-01T11:06:45.032Z,5.28
2023-06-01T11:09:13.111Z,5.40
2023-06-01T11:11:53.729Z,5.03
2023-06-01T11:14:26.445Z,5.00
2023-06-01T11:16:57.232Z,5.13
2023-06-01T11:19:29.030Z,5.20
2023-06-01T11:22:06.223Z,5.80
2023-06-01T11:24:37.924Z,4.80
2023-06-01T11:27:09.771Z,5.55
2023-06-01T11:29:36.784Z,5.15
2023-06-01T11:32:06.748Z,5.32
2023-06-01T11:34:42.297Z,5.20
2023-06-01T11:37:20.126Z,5.30
2023-06-01T11:39:48.399Z,5.45
2023-06-01T11:42:19.681Z,6.00
2023-06-01T11:44:57.541Z,5.90
2023-06-01T11:47:31.551Z,5.75
2023-06-01T11:49:58.142Z,5.35
2023-06-01T11:52:24.911Z,6.10
2023-06-01T11:54:55.760Z,5.68
2023-06-01T11:57:25.702Z,5.28
2023-06-01T11:59:56.674Z,5.32
2023-06-01T12:02:43.540Z,5.63
2023-06-01T12:05:10.949Z,6.20
2023-06-01T12:07:57.099Z,6.07
2023-06-01T12:10:27.041Z,5.22
2023-06-01T12:12:57.231Z,5.63
2023-06-01T12:15:27.174Z,5.13
2023-06-01T12:18:00.027Z,5.55
2023-06-01T12:20:31.697Z,5.38
2023-06-01T12:23:00.675Z,4.95
2023-06-01T12:25:27.964Z,5.97
2023-06-01T12:28:11.578Z,6.03
2023-06-01T12:30:38.455Z,5.78
2023-06-01T12:33:07.236Z,5.60
2023-06-01T12:35:34.487Z,5.28
2023-06-01T12:38:08.541Z,5.85
2023-06-01T12:40:36.460Z,5.95
2023-06-01T12:43:06.515Z,5.32
2023-06-01T12:45:39.664Z,5.95
2023-06-01T12:48:07.535Z,5.45
2023-06-01T12:50:34.512Z,5.78
2023-06-01T12:53:01.174Z,4.97
2023-06-01T12:55:27.676Z,5.50
2023-06-01T12:57:56.030Z,5.43
2023-06-01T13:00:30.866Z,6.18
2023-06-01T13:03:06.417Z,5.55
2023-06-01T13:05:33.568Z,5.80
2023-06-01T13:08:00.998Z,6.05
2023-06-01T13:10:27.811Z,5.40
2023-06-01T13:12:54.901Z,5.72
2023-06-01T13:15:22.465Z,5.50
2023-06-01T13:17:49.268Z,5.50
2023-06-01T13:20:17.940Z,5.47
2023-06-01T13:22:44.532Z,6.18
2023-06-01T13:25:37.034Z,6.32
2023-06-01T13:28:03.867Z,5.97
2023-06-01T13:30:30.951Z,6.00
2023-06-01T13:32:58.351Z,5.95
2023-06-01T13:35:25.230Z,6.03
2023-06-01T13:37:52.750Z,6.15
2023-06-01T13:40:24.145Z,5.65
2023-06-01T13:42:53.937Z,5.82
2023-06-01T13:45:26.901Z,5.68
2023-06-01T13:47:56.582Z,5.60
2023-06-01T13:50:24.694Z,5.53
2023-06-01T13:53:01.307Z,6.00
2023-06-01T13:55:38.133Z,6.28
2023-06-01T13:58:04.945Z,6.07
2023-06-01T14:00:31.852Z,6.18
2023-06-01T14:02:58.741Z,5.80
2023-06-01T14:05:32.094Z,5.60
2023-06-01T14:08:06.735Z,5.07
2023-06-01T14:10:35.253Z,5.53
2023-06-01T14:13:03.030Z,6.13
2023-06-01T14:15:29.714Z,5.72
2023-06-01T14:17:59.760Z,5.70
2023-06-01T14:20:31.016Z,5.78
2023-06-01T14:23:02.410Z,5.93
2023-06-01T14:25:29.592Z,5.70
2023-06-01T14:27:59.731Z,5.90
2023-06-01T14:30:30.555Z,5.57
2023-06-01T14:32:57.339Z,5.65
2023-06-01T14:35:26.214Z,5.60
2023-06-01T14:37:53.248Z,5.45
2023-06-01T14:40:19.976Z,5.57
2023-06-01T14:42:46.948Z,5.43
2023-06-01T14:45:13.643Z,5.70
2023-06-01T14:47:42.846Z,4.88
2023-06-01T14:50:10.812Z,4.78
2023-06-01T14:52:37.394Z,5.13
2023-06-01T14:55:04.324Z,5.40
2023-06-01T14:57:31.032Z,5.88
2023-06-01T15:00:03.970Z,5.05
2023-06-01T15:02:31.163Z,4.97
2023-06-01T15:04:57.891Z,5.72
2023-06-01T15:07:25.506Z,4.88
2023-06-01T15:09:57.032Z,5.35
2023-06-01T15:12:28.459Z,4.97
2023-06-01T15:15:05.924Z,5.55
2023-06-01T15:17:34.667Z,5.50
2023-06-01T15:20:01.577Z,5.45
2023-06-01T15:22:28.234Z,5.88
2023-06-01T15:24:57.730Z,5.32
2023-06-01T15:27:27.721Z,5.63
2023-06-01T15:29:56.505Z,6.10
2023-06-01T15:32:23.110Z,5.35
2023-06-01T15:34:49.797Z,4.97
2023-06-01T15:37:16.455Z,6.55
2023-06-01T15:39:43.106Z,5.55
2023-06-01T15:42:11.226Z,6.97
2023-06-01T15:44:43.107Z,5.22
2023-06-01T15:47:11.195Z,5.70
2023-06-01T15:49:40.952Z,5.25
2023-06-01T15:52:08.198Z,5.80
2023-06-01T15:54:36.174Z,5.40
2023-06-01T15:57:05.263Z,6.10
2023-06-01T15:59:31.967Z,5.55
2023-06-01T16:01:58.792Z,5.70
2023-06-01T16:04:27.644Z,6.00
2023-06-01T16:06:54.266Z,6.05
2023-06-01T16:09:24.518Z,6.10
2023-06-01T16:11:52.470Z,6.30
2023-06-01T16:14:19.126Z,5.60
2023-06-01T16:16:45.981Z,6.72
2023-06-01T16:19:15.425Z,6.20
2023-06-01T16:21:42.275Z,6.40
2023-06-01T16:24:09.460Z,6.65
2023-06-01T16:26:38.300Z,6.38
2023-06-01T16:29:05.038Z,6.03
2023-06-01T16:31:31.850Z,5.85
2023-06-01T16:34:02.570Z,5.82
2023-06-01T16:36:29.296Z,5.78
2023-06-01T16:38:56.023Z,5.65
2023-06-01T16:41:22.781Z,6.10
2023-06-01T16:43:49.403Z,6.53
2023-06-01T16:46:16.206Z,6.40
2023-06-01T16:48:42.904Z,6.93
2023-06-01T16:51:09.500Z,5.82
2023-06-01T16:53:35.984Z,6.78
2023-06-01T16:56:02.612Z,5.50
2023-06-01T16:58:32.333Z,7.03
2023-06-01T17:00:58.937Z,6.10
2023-06-01T17:03:27.089Z,6.13
2023-06-01T17:05:56.040Z,6.13
2023-06-01T17:08:22.554Z,6.63
2023-06-01T17:10:49.092Z,6.55
2023-06-01T17:13:15.836Z,5.50
2023-06-01T17:15:42.552Z,5.70
2023-06-01T17:18:11.807Z,5.93
2023-06-01T17:20:41.233Z,5.47
2023-06-01T17:23:07.911Z,5.40
2023-06-01T17:25:34.815Z,5.95
2023-06-01T17:28:02.054Z,5.78
2023-06-01T17:30:29.633Z,5.18
2023-06-01T17:32:56.566Z,6.32
2023-06-01T17:35:23.222Z,5.22
2023-06-01T17:37:49.751Z,5.25
2023-06-01T17:40:16.399Z,5.78
2023-06-01T17:42:43.035Z,5.45
2023-06-01T17:45:10.631Z,5.40
2023-06-01T17:47:37.640Z,5.70
2023-06-01T17:50:04.522Z,5.70
2023-06-01T17:52:32.133Z,5.57
2023-06-01T17:54:58.684Z,5.28
2023-06-01T17:57:25.170Z,5.47
2023-06-01T17:59:52.530Z,5.68
2023-06-01T18:02:19.055Z,6.20
2023-06-01T18:04:45.596Z,5.35
2023-06-01T18:07:12.150Z,5.50
2023-06-01T18:09:38.673Z,5.55
2023-06-01T18:12:06.025Z,5.10
2023-06-01T18:14:32.550Z,5.70
2023-06-01T18:17:01.803Z,5.22
2023-06-01T18:19:28.380Z,4.90
2023-06-01T18:22:10.402Z,5.13
2023-06-01T18:24:53.685Z,5.38
2023-06-01T18:27:20.743Z,5.00
2023-06-01T18:29:47.369Z,4.82
2023-06-01T18:32:13.982Z,5.22
2023-06-01T18:34:40.600Z,5.35
2023-06-01T18:37:11.144Z,5.43
2023-06-01T18:39:53.662Z,5.35
2023-06-01T18:42:45.215Z,5.15
2023-06-01T18:45:12.034Z,5.25
2023-06-01T18:47:39.280Z,4.88
2023-06-01T18:50:06.563Z,4.78
2023-06-01T18:52:33.328Z,5.15
2023-06-01T18:55:05.880Z,5.18
2023-06-01T18:57:32.447Z,5.35
2023-06-01T19:03:34.136Z,4.72
2023-06-01T19:06:04.534Z,4.78
2023-06-01T19:08:32.964Z,5.32
2023-06-01T19:11:02.877Z,4.85
2023-06-01T19:13:35.581Z,5.35
2023-06-01T19:16:08.843Z,5.40
2023-06-01T19:18:35.450Z,4.93
2023-06-01T19:21:26.605Z,4.65
2023-06-01T19:23:58.508Z,5.20
2023-06-01T19:26:28.351Z,4.95
2023-06-01T19:29:06.758Z,5.30
2023-06-01T19:31:44.597Z,5.30
2023-06-01T19:34:13.029Z,5.05
2023-06-01T19:36:42.592Z,4.40
2023-06-01T19:39:32.310Z,5.53
2023-06-01T19:42:08.351Z,4.43
2023-06-01T19:44:35.765Z,4.88
2023-06-01T19:47:07.293Z,4.55
2023-06-01T19:49:39.803Z,4.47
2023-06-01T19:52:11.080Z,5.15
2023-06-01T19:54:39.202Z,5.18
2023-06-01T19:57:08.852Z,5.28
2023-06-01T19:59:37.680Z,4.97
2023-06-01T20:02:07.287Z,4.93
2023-06-01T20:04:38.488Z,4.70
2023-06-01T20:07:16.130Z,5.15
2023-06-01T20:09:42.847Z,4.85
2023-06-01T20:12:13.239Z,5.05
2023-06-01T20:14:40.074Z,5.00
2023-06-01T20:17:06.804Z,4.90
2023-06-01T20:20:26.529Z,5.38
2023-06-01T20:23:41.927Z,5.30
2023-06-01T20:26:11.188Z,5.20
2023-06-01T20:28:48.154Z,6.05
2023-06-01T20:31:17.269Z,5.13
2023-06-01T20:33:44.620Z,4.85
2023-06-01T20:36:12.452Z,5.88
2023-06-01T20:38:41.453Z,5.35
2023-06-01T20:41:10.562Z,5.25
2023-06-01T20:43:38.379Z,4.95
2023-06-01T20:46:12.813Z,4.65
2023-06-01T20:48:52.498Z,4.45
2023-06-01T20:51:34.384Z,5.03
2023-06-01T20:54:08.021Z,4.90
2023-06-01T20:56:39.794Z,5.35
2023-06-01T20:59:10.597Z,4.82
2023-06-01T21:01:39.960Z,5.15
2023-06-01T21:04:08.925Z,4.90
2023-06-01T21:06:36.331Z,5.05
2023-06-01T21:09:10.705Z,4.78
2023-06-01T21:11:41.659Z,4.63
2023-06-01T21:14:08.345Z,5.00
2023-06-01T21:16:35.105Z,5.07
2023-06-01T21:19:04.610Z,4.30
2023-06-01T21:21:33.833Z,5.03
2023-06-01T21:24:01.096Z,4.80
2023-06-01T21:26:27.844Z,4.57
2023-06-01T21:28:54.567Z,5.20
2023-06-01T21:31:21.518Z,5.50
2023-06-01T21:33:48.473Z,5.25
2023-06-01T21:36:15.279Z,4.28
2023-06-01T21:38:41.936Z,5.07
2023-06-01T21:41:10.638Z,4.72
2023-06-01T21:43:37.441Z,4.82
2023-06-01T21:46:07.477Z,4.68
2023-06-01T21:48:37.655Z,5.10
2023-06-01T21:51:08.846Z,5.10
2023-06-01T21:53:38.566Z,5.15
2023-06-01T21:56:07.496Z,4.90
2023-06-01T21:58:38.308Z,5.43
2023-06-01T22:01:09.212Z,5.10
2023-06-01T22:03:39.753Z,5.60
2023-06-01T22:06:07.628Z,5.63
2023-06-01T22:08:37.298Z,5.00
2023-06-01T22:11:07.475Z,5.10
2023-06-01T22:13:39.817Z,5.18
2023-06-01T22:16:07.688Z,5.20
2023-06-01T22:18:36.641Z,4.78
2023-06-01T22:21:03.308Z,5.70
2023-06-01T22:23:29.954Z,5.80
2023-06-01T22:25:56.550Z,5.47
2023-06-01T22:28:23.187Z,5.43
2023-06-01T22:30:49.779Z,5.38
2023-06-01T22:33:16.374Z,5.88
2023-06-01T22:35:42.996Z,5.30
2023-06-01T22:38:09.645Z,5.38
2023-06-01T22:40:38.462Z,5.65
2023-06-01T22:43:05.122Z,6.25
2023-06-01T22:45:31.898Z,5.45
2023-06-01T22:47:58.583Z,6.35
2023-06-01T22:50:25.532Z,6.20
2023-06-01T22:52:53.173Z,5.57
2023-06-01T22:55:19.836Z,5.65
2023-06-01T22:57:46.466Z,6.38
2023-06-01T23:00:13.245Z,5.97
2023-06-01T23:02:42.973Z,5.82
2023-06-01T23:05:13.768Z,5.90
2023-06-01T23:07:41.208Z,5.50
2023-06-01T23:10:11.798Z,6.00
2023-06-01T23:12:42.227Z,6.15
2023-06-01T23:15:13.333Z,5.82
2023-06-01T23:17:43.971Z,5.53
2023-06-01T23:20:14.897Z,5.90
2023-06-01T23:22:41.553Z,5.90
2023-06-01T23:25:11.203Z,6.07
2023-06-01T23:27:37.817Z,6.22
2023-06-01T23:30:04.611Z,5.80
2023-06-01T23:32:32.638Z,6.15
2023-06-01T23:34:59.313Z,6.18
2023-06-01T23:37:28.850Z,6.40
2023-06-01T23:39:55.852Z,5.85
2023-06-01T23:42:22.528Z,6.30
2023-06-01T23:44:49.110Z,7.93
2023-06-01T23:47:17.933Z,3.25
2023-06-01T23:49:44.548Z,4.57
2023-06-01T23:52:16.544Z,3.10
2023-06-01T23:54:43.150Z,3.25
2023-06-01T23:57:10.963Z,2.97
2023-06-01T23:59:37.581Z,3.10
